KAIK/AIK METAR and TAF weather

Enter ICAO airport designator
Station Type Date Time Source
KAIK METAR 2022/06/27 17:55 UTC NOAA

KAIK 271755Z AUTO 21006KT 10SM SCT055 OVC080 27/19 A3012 RMK AO2 T02750189 10285 20236


Station Type Date Time Source
KAIK Decoded METAR 2022/06/27 17:55 UTC NOAA

Station name not available
Jun 27, 2022 - 01:55 PM EDT / 2022.06.27 1755 UTC
Wind: from the SSW (210 degrees) at 7 MPH (6 KT):0
Visibility: 10 mile(s):0
Sky conditions: overcast
Temperature: 81.5 F (27.5 C)
Dew Point: 66.0 F (18.9 C)
Relative Humidity: 59%
Pressure (altimeter): 30.12 in. Hg (1019 hPa)
ob: KAIK 271755Z AUTO 21006KT 10SM SCT055 OVC080 27/19 A3012 RMK AO2 T02750189 10285 20236
cycle: 18

Station Type Date Time Source
KAIK TAF UTC NOAA

Error!

Example: see airport list